Terminal Aerodrome Forecast
Issued by NWS

Home | Current Version | Previous Version | Text Only | Print | Product List | Glossary On
Versions: 1 2 3 4 5 6 7 8 9 10 11 12 13 14 15
000
FTUS43 KSGF 251720
TAFJLN
TAF
KJLN 251720Z 2518/2618 19020G28KT P6SM FEW250
     FM260100 18011KT P6SM OVC130
     FM260400 17012KT P6SM -SHRA VCTS SCT050CB PROB30 2604/2610 5SM
      -TSRA BR OVC035CB
     FM261000 31010KT P6SM -RA OVC007=

USA.gov is the U.S. government's official web portal to all federal, state and local government web resources and services.